Time;durP1;ratioP1;P1;durP2;ratioP2;P2;SDS_P1;SDS_P2;PMS_P1;PMS_P2;Temp;Humidity;BMP_temperature;BMP_pressure;BME280_temperature;BME280_humidity;BME280_pressure;Samples;Min_cycle;Max_cycle;Signal;HPM_P1;HPM_P2
2023/05/08 00:02:12;;;;;;;4.73;2.87;;;;;;;;;;10411569;28;20070;-78
2023/05/08 00:07:12;;;;;;;6.03;2.78;;;;;;;;;;10410502;28;20032;-78
2023/05/08 00:12:12;;;;;;;5.77;3.07;;;;;;;;;;10429039;28;20024;-79
2023/05/08 00:17:13;;;;;;;7.87;2.73;;;;;;;;;;10428990;28;20029;-78
2023/05/08 00:22:13;;;;;;;4.70;3.03;;;;;;;;;;10428159;28;20036;-78
2023/05/08 00:27:13;;;;;;;5.93;2.50;;;;;;;;;;10428291;28;20631;-78
2023/05/08 00:32:13;;;;;;;6.40;2.28;;;;;;;;;;10409971;28;20531;-79
2023/05/08 00:37:14;;;;;;;4.80;2.60;;;;;;;;;;10427150;28;20048;-79
2023/05/08 00:42:14;;;;;;;10.40;3.25;;;;;;;;;;10427803;28;20100;-79
2023/05/08 00:47:14;;;;;;;10.63;3.35;;;;;;;;;;10426645;28;20091;-79
2023/05/08 00:52:15;;;;;;;7.47;3.42;;;;;;;;;;10408878;28;20444;-79
2023/05/08 00:57:16;;;;;;;5.47;3.08;;;;;;;;;;10427378;28;20395;-79
2023/05/08 01:02:16;;;;;;;6.53;3.22;;;;;;;;;;10425772;28;20041;-79
2023/05/08 01:07:16;;;;;;;4.17;2.90;;;;;;;;;;10425780;28;20029;-79
2023/05/08 01:12:28;;;;;;;5.50;2.67;;;;;;;;;;10408881;28;20362;-79
2023/05/08 01:17:57;;;;;;;5.68;2.90;;;;;;;;;;10426241;28;20036;-79
2023/05/08 01:23:04;;;;;;;3.70;2.72;;;;;;;;;;10412160;28;20090;-79
2023/05/08 01:28:16;;;;;;;6.88;3.22;;;;;;;;;;10426212;28;20033;-78
2023/05/08 01:33:25;;;;;;;8.77;3.20;;;;;;;;;;10428734;28;20369;-79
2023/05/08 01:38:30;;;;;;;6.13;3.70;;;;;;;;;;10429132;28;20526;-78
2023/05/08 01:43:33;;;;;;;8.43;5.15;;;;;;;;;;10429082;28;20450;-78
2023/05/08 01:48:37;;;;;;;6.07;3.75;;;;;;;;;;10429097;28;20156;-78
2023/05/08 01:53:41;;;;;;;6.53;4.32;;;;;;;;;;10427374;28;20039;-79
2023/05/08 01:58:42;;;;;;;8.65;4.40;;;;;;;;;;10426561;28;20036;-79
2023/05/08 02:03:43;;;;;;;10.88;4.18;;;;;;;;;;10428024;28;20041;-79
2023/05/08 02:08:44;;;;;;;9.10;4.43;;;;;;;;;;10427546;28;20099;-80
2023/05/08 02:13:46;;;;;;;6.25;4.88;;;;;;;;;;10426944;28;20021;-79
2023/05/08 02:18:50;;;;;;;8.77;4.82;;;;;;;;;;10408440;28;20075;-79
2023/05/08 02:23:51;;;;;;;9.40;5.20;;;;;;;;;;10408889;28;20021;-79
2023/05/08 02:28:53;;;;;;;8.57;5.68;;;;;;;;;;10428646;28;20044;-80
2023/05/08 02:33:54;;;;;;;11.38;4.72;;;;;;;;;;10428783;28;20753;-79
2023/05/08 02:38:57;;;;;;;9.32;5.82;;;;;;;;;;10427118;28;20232;-79
2023/05/08 02:43:57;;;;;;;8.60;6.03;;;;;;;;;;10426231;28;20112;-80
2023/05/08 02:49:06;;;;;;;11.45;6.15;;;;;;;;;;10408332;28;20754;-80
2023/05/08 02:54:09;;;;;;;12.35;6.10;;;;;;;;;;10403645;28;20162;-80
2023/05/08 02:59:13;;;;;;;9.80;7.20;;;;;;;;;;10408492;28;20397;-80
2023/05/08 03:04:18;;;;;;;13.13;6.93;;;;;;;;;;10424894;28;20445;-78
2023/05/08 03:09:21;;;;;;;12.82;6.90;;;;;;;;;;10422013;28;20059;-79
2023/05/08 03:14:24;;;;;;;11.10;7.47;;;;;;;;;;10426687;28;20387;-78
2023/05/08 03:19:30;;;;;;;16.55;6.97;;;;;;;;;;10423155;28;20526;-78
2023/05/08 03:24:33;;;;;;;18.67;7.53;;;;;;;;;;10408063;28;20139;-80
2023/05/08 03:29:35;;;;;;;17.63;7.90;;;;;;;;;;10424467;28;20025;-79
2023/05/08 03:34:35;;;;;;;10.88;7.57;;;;;;;;;;10406855;28;20095;-79
2023/05/08 03:39:35;;;;;;;13.10;7.30;;;;;;;;;;10406388;28;20111;-79
2023/05/08 03:44:36;;;;;;;20.67;7.37;;;;;;;;;;10428077;28;20447;-79
2023/05/08 03:49:37;;;;;;;12.18;7.10;;;;;;;;;;10429968;28;20028;-79
2023/05/08 03:54:38;;;;;;;15.07;7.25;;;;;;;;;;10433967;28;20024;-79
2023/05/08 03:59:42;;;;;;;13.25;7.70;;;;;;;;;;10414897;28;20666;-79
2023/05/08 04:04:44;;;;;;;19.20;7.97;;;;;;;;;;10430237;28;20025;-79
2023/05/08 04:10:03;;;;;;;22.67;8.38;;;;;;;;;;10431254;28;20074;-79
2023/05/08 04:15:06;;;;;;;18.95;8.32;;;;;;;;;;10431267;28;20051;-79
2023/05/08 04:20:09;;;;;;;16.50;8.77;;;;;;;;;;10436232;28;20161;-79
2023/05/08 04:25:10;;;;;;;15.85;8.05;;;;;;;;;;10412195;28;20395;-79
2023/05/08 04:30:10;;;;;;;13.73;7.88;;;;;;;;;;10429684;28;20055;-79
2023/05/08 04:35:13;;;;;;;13.30;7.05;;;;;;;;;;10429920;28;20082;-79
2023/05/08 04:40:14;;;;;;;14.05;7.60;;;;;;;;;;10431293;28;20753;-79
2023/05/08 04:45:14;;;;;;;14.45;7.50;;;;;;;;;;10410981;28;20043;-79
2023/05/08 04:50:15;;;;;;;9.52;6.63;;;;;;;;;;10428883;28;20422;-79
2023/05/08 04:55:15;;;;;;;15.55;7.10;;;;;;;;;;10410279;28;20032;-79
2023/05/08 05:00:16;;;;;;;25.83;8.13;;;;;;;;;;10427980;28;20797;-79
2023/05/08 05:05:16;;;;;;;10.48;6.85;;;;;;;;;;10406381;28;20382;-79
2023/05/08 05:10:16;;;;;;;20.77;7.07;;;;;;;;;;10427612;28;20021;-78
2023/05/08 05:15:17;;;;;;;15.90;6.23;;;;;;;;;;10424490;28;20464;-79
2023/05/08 05:20:17;;;;;;;11.40;5.73;;;;;;;;;;10404037;28;20442;-78
2023/05/08 05:25:17;;;;;;;18.08;7.18;;;;;;;;;;10427171;28;20294;-78
2023/05/08 05:30:17;;;;;;;14.13;7.47;;;;;;;;;;10422061;28;20651;-76
2023/05/08 05:35:18;;;;;;;7.95;5.03;;;;;;;;;;10404432;28;20113;-76
2023/05/08 05:40:19;;;;;;;14.77;5.70;;;;;;;;;;10422738;28;20505;-76
2023/05/08 05:45:19;;;;;;;11.75;5.85;;;;;;;;;;10420825;28;20016;-73
2023/05/08 05:50:20;;;;;;;10.57;4.97;;;;;;;;;;10420466;28;20438;-77
2023/05/08 05:55:23;;;;;;;6.80;4.30;;;;;;;;;;10422415;28;20512;-77
2023/05/08 06:00:24;;;;;;;8.07;5.07;;;;;;;;;;10426444;28;20044;-77
2023/05/08 06:05:24;;;;;;;10.30;4.53;;;;;;;;;;10422019;28;20029;-76
2023/05/08 06:10:25;;;;;;;8.10;3.60;;;;;;;;;;10423028;28;20078;-75
2023/05/08 06:15:25;;;;;;;5.70;3.40;;;;;;;;;;10424218;28;20028;-76
2023/05/08 06:20:25;;;;;;;10.25;4.47;;;;;;;;;;10423130;28;20406;-76
2023/05/08 06:25:27;;;;;;;6.10;3.85;;;;;;;;;;10404392;28;20033;-75
2023/05/08 06:30:28;;;;;;;8.90;4.82;;;;;;;;;;10424721;28;20065;-75
2023/05/08 06:35:28;;;;;;;10.70;3.83;;;;;;;;;;10423476;28;20032;-74
2023/05/08 06:40:29;;;;;;;4.88;3.58;;;;;;;;;;10423315;28;20508;-76
2023/05/08 06:45:29;;;;;;;8.60;3.83;;;;;;;;;;10419560;28;20122;-76
2023/05/08 06:50:30;;;;;;;8.13;3.80;;;;;;;;;;10403332;28;20017;-76
2023/05/08 06:55:30;;;;;;;6.82;3.55;;;;;;;;;;10419016;28;20021;-75
2023/05/08 07:00:30;;;;;;;9.00;4.22;;;;;;;;;;10422375;28;20021;-75
2023/05/08 07:05:30;;;;;;;9.35;4.05;;;;;;;;;;10421990;28;20037;-75
2023/05/08 07:10:31;;;;;;;9.15;4.10;;;;;;;;;;10422144;28;20021;-75
2023/05/08 07:15:31;;;;;;;9.90;4.70;;;;;;;;;;10422584;28;20028;-75
2023/05/08 07:20:31;;;;;;;13.25;5.10;;;;;;;;;;10429220;28;20514;-77
2023/05/08 07:25:31;;;;;;;8.38;5.00;;;;;;;;;;10429157;28;20670;-76
2023/05/08 07:30:32;;;;;;;6.63;4.53;;;;;;;;;;10430464;28;20020;-75
2023/05/08 07:35:33;;;;;;;13.13;5.22;;;;;;;;;;10433385;28;20032;-77
2023/05/08 07:40:33;;;;;;;10.93;4.22;;;;;;;;;;10429571;28;20231;-76
2023/05/08 07:45:34;;;;;;;19.08;6.03;;;;;;;;;;10410885;28;20470;-76
2023/05/08 07:50:35;;;;;;;15.73;5.57;;;;;;;;;;10428403;28;20410;-76
2023/05/08 07:55:35;;;;;;;8.77;5.78;;;;;;;;;;10428469;28;20033;-76
2023/05/08 08:00:36;;;;;;;8.63;4.95;;;;;;;;;;10429893;28;20056;-76
2023/05/08 08:05:37;;;;;;;12.05;4.85;;;;;;;;;;10428574;28;20041;-75
2023/05/08 08:10:38;;;;;;;8.03;4.73;;;;;;;;;;10389059;28;20458;-75
2023/05/08 08:15:38;;;;;;;10.98;5.20;;;;;;;;;;10405354;28;20449;-75
2023/05/08 08:20:39;;;;;;;18.50;4.67;;;;;;;;;;10388738;28;20365;-75
2023/05/08 08:25:39;;;;;;;17.53;4.73;;;;;;;;;;10406776;28;20098;-75
2023/05/08 08:30:39;;;;;;;12.70;4.67;;;;;;;;;;10425684;28;20502;-76
2023/05/08 08:35:40;;;;;;;8.67;3.60;;;;;;;;;;10430134;28;20025;-75
2023/05/08 08:40:40;;;;;;;7.33;4.50;;;;;;;;;;10414420;28;20059;-76
2023/05/08 08:45:41;;;;;;;9.80;4.72;;;;;;;;;;10426907;28;20071;-76
2023/05/08 08:50:45;;;;;;;7.90;4.13;;;;;;;;;;10425915;28;20438;-76
2023/05/08 08:55:49;;;;;;;14.00;4.70;;;;;;;;;;10426223;28;20102;-76
2023/05/08 09:00:50;;;;;;;15.43;4.95;;;;;;;;;;10408116;28;20028;-78
2023/05/08 09:05:50;;;;;;;12.68;6.15;;;;;;;;;;10383667;28;20029;-77
2023/05/08 09:10:52;;;;;;;7.40;4.60;;;;;;;;;;10399212;28;20412;-77
2023/05/08 09:15:52;;;;;;;12.15;3.95;;;;;;;;;;10411265;28;20083;-76
2023/05/08 09:20:53;;;;;;;9.47;4.77;;;;;;;;;;10386509;28;20148;-77
2023/05/08 09:25:53;;;;;;;16.40;5.77;;;;;;;;;;10410246;28;20525;-76
2023/05/08 09:30:57;;;;;;;8.97;4.10;;;;;;;;;;10403452;28;20353;-76
2023/05/08 09:35:58;;;;;;;15.77;5.25;;;;;;;;;;10404341;28;20025;-77
2023/05/08 09:41:06;;;;;;;20.08;5.43;;;;;;;;;;10404821;28;20032;-77
2023/05/08 09:46:22;;;;;;;11.88;4.57;;;;;;;;;;10424649;28;20025;-78
2023/05/08 09:51:29;;;;;;;13.77;4.95;;;;;;;;;;10438630;28;20482;-78
2023/05/08 09:56:33;;;;;;;16.73;4.67;;;;;;;;;;10424631;28;20020;-77
2023/05/08 10:01:35;;;;;;;8.05;4.25;;;;;;;;;;10424228;28;20056;-77
2023/05/08 10:06:40;;;;;;;11.23;5.22;;;;;;;;;;10406773;28;20036;-76
2023/05/08 10:11:50;;;;;;;9.43;5.55;;;;;;;;;;10424452;28;20094;-76
2023/05/08 10:16:51;;;;;;;11.00;4.80;;;;;;;;;;10405280;28;20526;-76
2023/05/08 10:21:52;;;;;;;8.73;4.10;;;;;;;;;;10423161;28;20025;-77
2023/05/08 10:26:58;;;;;;;6.93;4.63;;;;;;;;;;10405584;28;20091;-76
2023/05/08 10:32:01;;;;;;;9.13;4.63;;;;;;;;;;10406941;28;20083;-76
2023/05/08 10:37:02;;;;;;;6.70;3.75;;;;;;;;;;10422653;28;20551;-76
2023/05/08 10:42:02;;;;;;;7.93;3.73;;;;;;;;;;10422863;28;20465;-76
2023/05/08 10:47:18;;;;;;;7.18;4.25;;;;;;;;;;10405797;28;20294;-75
2023/05/08 10:52:23;;;;;;;5.13;3.90;;;;;;;;;;10424469;28;20466;-75
2023/05/08 10:57:23;;;;;;;9.40;4.10;;;;;;;;;;10431401;28;20474;-75
2023/05/08 11:02:35;;;;;;;5.05;3.60;;;;;;;;;;10435257;28;20021;-76
2023/05/08 11:07:55;;;;;;;10.70;4.18;;;;;;;;;;10429588;28;20040;-76
2023/05/08 11:12:56;;;;;;;11.50;4.03;;;;;;;;;;10431842;28;20021;-76
2023/05/08 11:17:57;;;;;;;8.85;4.10;;;;;;;;;;10428987;28;20036;-75
2023/05/08 11:23:17;;;;;;;7.53;4.03;;;;;;;;;;10428820;28;20420;-75
2023/05/08 11:28:17;;;;;;;6.70;4.32;;;;;;;;;;10428695;28;20017;-75
2023/05/08 11:33:18;;;;;;;7.57;4.13;;;;;;;;;;10429264;28;20024;-75
2023/05/08 11:38:21;;;;;;;5.93;3.80;;;;;;;;;;10429766;28;20037;-76
2023/05/08 11:43:27;;;;;;;7.53;4.43;;;;;;;;;;10428372;28;20486;-75
2023/05/08 11:48:28;;;;;;;5.28;4.15;;;;;;;;;;10410102;28;20020;-76
2023/05/08 11:53:30;;;;;;;8.00;4.35;;;;;;;;;;10410962;28;20025;-76
2023/05/08 11:58:30;;;;;;;5.40;3.95;;;;;;;;;;10409689;28;20120;-75
2023/05/08 12:03:31;;;;;;;6.47;4.60;;;;;;;;;;10426733;28;20024;-75
2023/05/08 12:08:31;;;;;;;5.67;4.47;;;;;;;;;;10427723;28;20047;-75
2023/05/08 12:13:31;;;;;;;8.60;3.85;;;;;;;;;;10427388;28;20267;-75
2023/05/08 12:18:32;;;;;;;10.43;4.40;;;;;;;;;;10427857;28;20379;-74
2023/05/08 12:23:32;;;;;;;5.97;3.63;;;;;;;;;;10410260;28;20029;-75
2023/05/08 12:28:33;;;;;;;8.02;4.63;;;;;;;;;;10426556;28;20668;-74
2023/05/08 12:33:39;;;;;;;6.65;3.80;;;;;;;;;;10426100;28;20407;-74
2023/05/08 12:38:40;;;;;;;5.13;3.80;;;;;;;;;;10408265;28;20052;-75
2023/05/08 12:43:40;;;;;;;6.70;3.80;;;;;;;;;;10425746;28;20541;-74
2023/05/08 12:48:40;;;;;;;5.13;3.50;;;;;;;;;;10425499;28;20025;-73
2023/05/08 12:53:41;;;;;;;5.18;3.92;;;;;;;;;;10425905;28;20502;-73
2023/05/08 12:58:41;;;;;;;7.43;3.80;;;;;;;;;;10407927;28;20174;-73
2023/05/08 13:03:41;;;;;;;8.00;3.50;;;;;;;;;;10426063;28;20448;-75
2023/05/08 13:08:42;;;;;;;6.13;3.50;;;;;;;;;;10425425;28;20468;-73
2023/05/08 13:13:42;;;;;;;11.30;4.27;;;;;;;;;;10424694;28;20513;-73
2023/05/08 13:18:42;;;;;;;11.77;4.18;;;;;;;;;;10424313;28;20264;-75
2023/05/08 13:23:43;;;;;;;5.32;3.90;;;;;;;;;;10425353;28;20032;-73
2023/05/08 13:28:43;;;;;;;6.53;3.30;;;;;;;;;;10425364;28;20037;-73
2023/05/08 13:33:43;;;;;;;7.57;4.03;;;;;;;;;;10424135;28;20367;-73
2023/05/08 13:38:47;;;;;;;8.33;3.37;;;;;;;;;;10406003;28;20918;-73
2023/05/08 13:43:47;;;;;;;7.18;3.42;;;;;;;;;;10423454;28;20428;-75
2023/05/08 13:48:48;;;;;;;6.97;3.33;;;;;;;;;;10423047;28;20021;-74
2023/05/08 13:53:48;;;;;;;7.80;3.90;;;;;;;;;;10405648;28;20021;-75
2023/05/08 13:58:48;;;;;;;6.97;4.03;;;;;;;;;;10423824;28;20064;-73
2023/05/08 14:03:49;;;;;;;6.00;4.15;;;;;;;;;;10422726;28;20080;-74
2023/05/08 14:08:49;;;;;;;8.43;4.60;;;;;;;;;;10423227;28;20020;-73
2023/05/08 14:13:49;;;;;;;10.00;4.50;;;;;;;;;;10405151;28;20032;-73
2023/05/08 14:18:50;;;;;;;8.65;4.43;;;;;;;;;;10422624;28;20027;-73
2023/05/08 14:23:50;;;;;;;10.30;5.33;;;;;;;;;;10423148;28;20533;-73
2023/05/08 14:28:53;;;;;;;9.13;4.95;;;;;;;;;;10404290;28;20025;-73
2023/05/08 14:33:54;;;;;;;8.07;4.90;;;;;;;;;;10421743;28;20021;-74
2023/05/08 14:38:55;;;;;;;9.85;4.30;;;;;;;;;;10403590;28;20042;-73
2023/05/08 14:43:55;;;;;;;4.88;4.38;;;;;;;;;;10421341;28;20021;-73
2023/05/08 14:48:56;;;;;;;7.47;3.72;;;;;;;;;;10421204;28;20025;-74
2023/05/08 14:53:56;;;;;;;4.30;3.30;;;;;;;;;;10421216;28;20025;-73
2023/05/08 14:58:56;;;;;;;7.43;3.67;;;;;;;;;;10421582;28;20263;-74
2023/05/08 15:03:57;;;;;;;10.63;3.97;;;;;;;;;;10421926;28;20744;-74
2023/05/08 15:08:57;;;;;;;4.25;2.38;;;;;;;;;;10421494;28;20025;-73
2023/05/08 15:14:00;;;;;;;4.43;3.00;;;;;;;;;;10421923;28;20455;-72
2023/05/08 15:19:00;;;;;;;8.38;3.45;;;;;;;;;;10403036;28;20029;-72
2023/05/08 15:24:01;;;;;;;5.47;2.85;;;;;;;;;;10401053;28;20017;-72
2023/05/08 15:29:01;;;;;;;3.72;2.63;;;;;;;;;;10418587;28;20028;-72
2023/05/08 15:34:01;;;;;;;4.32;3.20;;;;;;;;;;10419499;28;20033;-73
2023/05/08 15:39:02;;;;;;;7.03;3.57;;;;;;;;;;10421682;28;20049;-74
2023/05/08 15:44:03;;;;;;;5.05;3.05;;;;;;;;;;10426797;28;20028;-75
2023/05/08 15:49:03;;;;;;;10.03;4.77;;;;;;;;;;10426923;28;20025;-75
2023/05/08 15:54:03;;;;;;;6.30;4.20;;;;;;;;;;10408750;28;20391;-76
2023/05/08 15:59:05;;;;;;;5.27;3.40;;;;;;;;;;10426937;28;20537;-73
2023/05/08 16:04:05;;;;;;;10.45;5.75;;;;;;;;;;10426493;28;20122;-75
2023/05/08 16:09:06;;;;;;;10.18;5.93;;;;;;;;;;10402503;28;20403;-74
2023/05/08 16:14:06;;;;;;;8.93;4.28;;;;;;;;;;10425598;28;20029;-76
2023/05/08 16:19:06;;;;;;;6.33;4.37;;;;;;;;;;10425612;28;20033;-74
2023/05/08 16:24:07;;;;;;;6.43;4.07;;;;;;;;;;10425068;28;20432;-74
2023/05/08 16:29:07;;;;;;;15.70;5.63;;;;;;;;;;10424724;28;20078;-74
2023/05/08 16:34:08;;;;;;;6.77;4.23;;;;;;;;;;10407312;28;20112;-75
2023/05/08 16:39:08;;;;;;;14.60;4.93;;;;;;;;;;10408696;28;20056;-75
2023/05/08 16:44:08;;;;;;;12.77;5.05;;;;;;;;;;10424467;28;20033;-75
2023/05/08 16:49:09;;;;;;;12.63;5.27;;;;;;;;;;10423911;28;20021;-73
2023/05/08 16:54:09;;;;;;;8.83;5.27;;;;;;;;;;10412955;28;20400;-73
2023/05/08 16:59:09;;;;;;;9.48;4.45;;;;;;;;;;10423324;28;20936;-73
2023/05/08 17:04:10;;;;;;;8.43;5.37;;;;;;;;;;10423464;28;20518;-72
2023/05/08 17:09:11;;;;;;;9.30;4.63;;;;;;;;;;10411132;28;20021;-72
2023/05/08 17:14:11;;;;;;;12.73;6.00;;;;;;;;;;10422873;28;20033;-73
2023/05/08 17:19:15;;;;;;;10.05;5.47;;;;;;;;;;10404741;28;20468;-73
2023/05/08 17:24:16;;;;;;;8.73;4.97;;;;;;;;;;10405808;28;20039;-74
2023/05/08 17:29:16;;;;;;;9.75;5.25;;;;;;;;;;10398478;28;20025;-73
2023/05/08 17:34:16;;;;;;;6.30;4.95;;;;;;;;;;10422207;28;20025;-74
2023/05/08 17:39:20;;;;;;;11.38;5.57;;;;;;;;;;10417557;28;20032;-74
2023/05/08 17:44:20;;;;;;;9.00;5.68;;;;;;;;;;10403524;28;20454;-74
2023/05/08 17:49:21;;;;;;;8.25;6.13;;;;;;;;;;10401543;28;20082;-73
2023/05/08 17:54:21;;;;;;;14.43;8.73;;;;;;;;;;10403683;28;20029;-73
2023/05/08 17:59:22;;;;;;;13.90;7.20;;;;;;;;;;10421788;28;20028;-73
2023/05/08 18:04:22;;;;;;;16.37;8.33;;;;;;;;;;10420651;28;20725;-73
2023/05/08 18:09:22;;;;;;;12.67;8.97;;;;;;;;;;10421358;28;20126;-73
2023/05/08 18:14:22;;;;;;;16.50;8.83;;;;;;;;;;10421106;28;20036;-74
2023/05/08 18:19:23;;;;;;;14.18;8.80;;;;;;;;;;10419059;28;20379;-72
2023/05/08 18:24:23;;;;;;;10.55;7.30;;;;;;;;;;10419874;28;20681;-72
2023/05/08 18:29:24;;;;;;;9.73;6.20;;;;;;;;;;10419386;28;20036;-71
2023/05/08 18:34:25;;;;;;;10.73;6.47;;;;;;;;;;10418076;28;20279;-71
2023/05/08 18:39:25;;;;;;;10.05;6.43;;;;;;;;;;10418728;28;20040;-72
2023/05/08 18:44:26;;;;;;;10.27;7.63;;;;;;;;;;10401288;28;20036;-71
2023/05/08 18:49:26;;;;;;;15.30;7.95;;;;;;;;;;10417372;28;20032;-72
2023/05/08 18:54:27;;;;;;;16.43;7.27;;;;;;;;;;10403250;28;20070;-74
2023/05/08 18:59:27;;;;;;;13.18;7.95;;;;;;;;;;10396450;28;20365;-74
2023/05/08 19:04:28;;;;;;;11.07;7.90;;;;;;;;;;10417742;28;20069;-74
2023/05/08 19:09:28;;;;;;;11.60;7.73;;;;;;;;;;10416783;28;20496;-74
2023/05/08 19:14:28;;;;;;;15.13;7.88;;;;;;;;;;10419352;28;20028;-74
2023/05/08 19:19:29;;;;;;;11.27;8.65;;;;;;;;;;10425923;28;20021;-74
2023/05/08 19:24:30;;;;;;;14.73;9.10;;;;;;;;;;10412354;28;20039;-78
2023/05/08 19:29:31;;;;;;;12.75;8.98;;;;;;;;;;10422420;28;20613;-73
2023/05/08 19:34:31;;;;;;;13.73;9.00;;;;;;;;;;10427662;28;20025;-72
2023/05/08 19:39:32;;;;;;;16.60;9.20;;;;;;;;;;10427153;28;20384;-74
2023/05/08 19:44:32;;;;;;;14.50;9.90;;;;;;;;;;10412737;28;20037;-73
2023/05/08 19:49:33;;;;;;;20.83;10.00;;;;;;;;;;10427878;28;20029;-76
2023/05/08 19:54:33;;;;;;;13.10;8.38;;;;;;;;;;10409689;28;20029;-74
2023/05/08 19:59:33;;;;;;;12.35;7.88;;;;;;;;;;10426352;28;20391;-76
2023/05/08 20:04:33;;;;;;;13.53;7.10;;;;;;;;;;10408203;28;20428;-75
2023/05/08 20:09:34;;;;;;;13.70;6.80;;;;;;;;;;10430888;28;20039;-79
2023/05/08 20:14:35;;;;;;;12.32;6.53;;;;;;;;;;10424739;28;20468;-79
2023/05/08 20:19:35;;;;;;;10.27;6.37;;;;;;;;;;10399245;28;20082;-78
2023/05/08 20:24:35;;;;;;;9.60;6.60;;;;;;;;;;10399389;28;20482;-80
2023/05/08 20:29:36;;;;;;;11.67;6.80;;;;;;;;;;10404165;28;20074;-74
2023/05/08 20:34:36;;;;;;;7.67;5.53;;;;;;;;;;10389251;28;20035;-79
2023/05/08 20:39:36;;;;;;;11.10;6.40;;;;;;;;;;10395972;28;20106;-76
2023/05/08 20:44:37;;;;;;;12.90;8.98;;;;;;;;;;10400417;28;20287;-76
2023/05/08 20:49:37;;;;;;;11.02;6.68;;;;;;;;;;10402247;28;20048;-80
2023/05/08 20:54:37;;;;;;;10.67;7.23;;;;;;;;;;10392215;28;20772;-78
2023/05/08 20:59:37;;;;;;;13.68;7.95;;;;;;;;;;10402204;28;20491;-79
2023/05/08 21:04:38;;;;;;;11.45;7.28;;;;;;;;;;10399885;28;20037;-77
2023/05/08 21:09:39;;;;;;;10.15;6.10;;;;;;;;;;10400204;28;20037;-80
2023/05/08 21:14:39;;;;;;;9.00;6.67;;;;;;;;;;10404853;28;20717;-79
2023/05/08 21:19:39;;;;;;;7.67;5.33;;;;;;;;;;10408991;28;20025;-79
2023/05/08 21:24:43;;;;;;;6.88;4.80;;;;;;;;;;10459145;22;20040;-81
2023/05/08 21:29:43;;;;;;;10.02;5.30;;;;;;;;;;10422432;28;20020;-80
2023/05/08 21:34:43;;;;;;;8.85;4.85;;;;;;;;;;10406560;28;20021;-80
2023/05/08 21:39:44;;;;;;;6.90;4.23;;;;;;;;;;10425000;28;20059;-79
2023/05/08 21:44:44;;;;;;;7.70;4.37;;;;;;;;;;10402715;28;20025;-79
2023/05/08 21:49:44;;;;;;;5.70;4.80;;;;;;;;;;10422112;28;20028;-79
2023/05/08 21:54:45;;;;;;;6.93;4.93;;;;;;;;;;10407562;28;20017;-79
2023/05/08 21:59:45;;;;;;;11.25;5.20;;;;;;;;;;10424336;28;20842;-79
2023/05/08 22:04:46;;;;;;;7.72;5.35;;;;;;;;;;10406577;28;20098;-78
2023/05/08 22:09:46;;;;;;;8.32;5.97;;;;;;;;;;10425003;28;20020;-79
2023/05/08 22:14:46;;;;;;;8.65;5.35;;;;;;;;;;10406999;28;20025;-79
2023/05/08 22:19:46;;;;;;;8.80;5.60;;;;;;;;;;10406857;28;20024;-79
2023/05/08 22:24:47;;;;;;;7.53;4.90;;;;;;;;;;10424322;28;20045;-79
2023/05/08 22:29:47;;;;;;;9.27;4.38;;;;;;;;;;10400702;28;20112;-79
2023/05/08 22:34:48;;;;;;;6.73;4.47;;;;;;;;;;10422845;28;20040;-79
2023/05/08 22:39:49;;;;;;;6.18;4.90;;;;;;;;;;10407170;28;20518;-80
2023/05/08 22:44:49;;;;;;;4.37;3.97;;;;;;;;;;10424367;28;20029;-79
2023/05/08 22:49:50;;;;;;;4.70;3.45;;;;;;;;;;10424042;28;20255;-79
2023/05/08 22:54:50;;;;;;;5.68;3.90;;;;;;;;;;10421860;28;20032;-79
2023/05/08 22:59:50;;;;;;;4.65;3.88;;;;;;;;;;10382691;28;20502;-79
2023/05/08 23:04:51;;;;;;;4.73;3.00;;;;;;;;;;10383986;28;20249;-80
2023/05/08 23:09:51;;;;;;;5.23;3.63;;;;;;;;;;10381862;28;20032;-80
2023/05/08 23:14:51;;;;;;;4.57;3.43;;;;;;;;;;10382854;28;20029;-79
2023/05/08 23:19:59;;;;;;;11.77;4.20;;;;;;;;;;10382498;28;20265;-78
2023/05/08 23:24:59;;;;;;;7.15;4.43;;;;;;;;;;10413452;28;20045;-80
2023/05/08 23:30:00;;;;;;;5.22;3.67;;;;;;;;;;10422446;28;20025;-79
2023/05/08 23:35:00;;;;;;;6.10;4.40;;;;;;;;;;10420532;28;20139;-79
2023/05/08 23:40:00;;;;;;;5.82;4.63;;;;;;;;;;10422246;28;20269;-78
2023/05/08 23:45:01;;;;;;;5.80;3.97;;;;;;;;;;10423026;28;20099;-78
2023/05/08 23:50:01;;;;;;;5.03;4.03;;;;;;;;;;10422278;28;20263;-78
2023/05/08 23:55:02;;;;;;;6.10;4.07;;;;;;;;;;10422800;28;20043;-78
